Time;durP1;ratioP1;P1;durP2;ratioP2;P2;SDS_P1;SDS_P2;PMS_P1;PMS_P2;Temp;Humidity;BMP_temperature;BMP_pressure;BME280_temperature;BME280_humidity;BME280_pressure;Samples;Min_cycle;Max_cycle;Signal;HPM_P1;HPM_P2
2023/05/18 00:00:35;;;;;;;9.25;2.00;;;7.90;99.90;;;6.37;100.00;98393.56;5027202;28;20524;-72
2023/05/18 00:03:02;;;;;;;9.63;2.28;;;7.80;99.90;;;6.32;100.00;98397.06;5019431;28;20136;-72
2023/05/18 00:05:32;;;;;;;5.32;1.65;;;7.70;99.90;;;6.35;100.00;98394.47;5026325;28;20667;-73
2023/05/18 00:08:00;;;;;;;8.30;1.77;;;7.70;99.90;;;6.35;100.00;98391.88;5011676;28;20053;-72
2023/05/18 00:10:28;;;;;;;7.60;1.60;;;7.60;99.90;;;6.34;100.00;98391.03;5025971;28;20049;-73
2023/05/18 00:12:55;;;;;;;8.05;1.90;;;7.70;99.90;;;6.29;100.00;98387.63;5025724;28;20080;-73
2023/05/18 00:15:22;;;;;;;11.18;1.80;;;7.70;99.90;;;6.26;100.00;98393.69;5027451;28;20163;-72
2023/05/18 00:17:52;;;;;;;8.88;2.08;;;7.60;99.90;;;6.18;100.00;98384.34;5026447;28;20069;-72
2023/05/18 00:20:20;;;;;;;10.20;2.20;;;7.50;99.90;;;5.85;100.00;98389.81;5025189;28;20581;-72
2023/05/18 00:22:49;;;;;;;11.00;2.03;;;7.40;99.90;;;5.80;100.00;98391.59;4995381;28;20041;-72
2023/05/18 00:25:16;;;;;;;10.93;2.75;;;7.30;99.90;;;5.90;100.00;98386.34;5019881;28;20094;-72
2023/05/18 00:27:43;;;;;;;7.45;1.80;;;7.30;99.90;;;5.95;100.00;98390.59;5021621;28;20475;-73
2023/05/18 00:30:11;;;;;;;8.65;1.92;;;7.30;99.90;;;5.80;100.00;98391.59;5021666;28;20049;-72
2023/05/18 00:32:38;;;;;;;10.27;2.00;;;7.30;99.90;;;5.77;100.00;98381.34;5030281;28;20063;-72
2023/05/18 00:35:06;;;;;;;10.45;1.55;;;7.20;99.90;;;5.36;100.00;98394.59;5029083;28;20407;-73
2023/05/18 00:37:33;;;;;;;7.90;2.13;;;7.10;99.90;;;5.47;100.00;98390.19;5028178;28;20053;-72
2023/05/18 00:40:01;;;;;;;12.23;2.20;;;7.00;99.90;;;5.49;100.00;98392.75;5031008;28;20053;-72
2023/05/18 00:42:28;;;;;;;6.05;1.70;;;7.00;99.90;;;5.37;100.00;98388.59;5001254;28;20079;-73
2023/05/18 00:44:55;;;;;;;10.02;2.00;;;6.90;99.90;;;5.39;100.00;98395.44;5026331;28;20045;-72
2023/05/18 00:47:22;;;;;;;12.20;2.60;;;6.90;99.90;;;5.39;100.00;98395.44;5009808;28;20249;-72
2023/05/18 00:49:49;;;;;;;9.10;2.28;;;6.90;99.90;;;5.12;100.00;98393.94;5032014;28;20461;-72
2023/05/18 00:52:16;;;;;;;11.27;2.28;;;6.80;99.90;;;5.06;100.00;98393.13;5023747;28;20524;-72
2023/05/18 00:54:43;;;;;;;13.00;2.15;;;6.70;99.90;;;5.13;100.00;98397.34;5010927;28;20164;-72
2023/05/18 00:57:10;;;;;;;9.43;1.90;;;6.60;99.90;;;5.11;100.00;98394.81;5021245;28;20479;-72
2023/05/18 00:59:38;;;;;;;9.88;2.47;;;6.60;99.90;;;5.13;100.00;98394.78;5032572;28;20111;-72
2023/05/18 01:02:05;;;;;;;8.88;2.10;;;6.60;99.90;;;4.84;100.00;98393.28;4994947;28;20370;-72
2023/05/18 01:04:33;;;;;;;9.27;2.30;;;6.60;99.90;;;4.62;100.00;98402.84;5023197;28;20045;-72
2023/05/18 01:07:05;;;;;;;11.07;2.05;;;6.40;99.90;;;4.47;100.00;98400.34;5022703;28;20107;-72
2023/05/18 01:09:33;;;;;;;10.60;2.40;;;6.20;99.90;;;4.50;100.00;98402.91;5010241;28;20062;-72
2023/05/18 01:12:18;;;;;;;15.65;2.75;;;6.10;99.90;;;4.57;100.00;98412.31;5030328;28;20116;-72
2023/05/18 01:15:15;;;;;;;12.77;2.38;;;6.00;99.90;;;4.50;100.00;98413.19;5027401;28;20448;-72
2023/05/18 01:18:03;;;;;;;11.85;2.17;;;6.00;99.90;;;4.44;100.00;98413.22;4989847;28;20045;-72
2023/05/18 01:20:56;;;;;;;8.15;1.63;;;6.00;99.90;;;4.39;100.00;98405.53;5032112;28;20041;-72
2023/05/18 01:23:57;;;;;;;10.70;2.22;;;5.90;99.90;;;4.46;100.00;98408.94;5029644;28;20513;-72
2023/05/18 01:26:36;;;;;;;11.93;2.25;;;5.90;99.90;;;4.48;100.00;98409.78;5024720;28;20069;-72
2023/05/18 01:29:11;;;;;;;9.95;2.35;;;5.90;99.90;;;4.40;100.00;98405.53;5030863;28;20053;-72
2023/05/18 01:31:39;;;;;;;11.07;2.08;;;5.90;99.90;;;4.39;100.00;98400.38;5026260;28;20041;-72
2023/05/18 01:34:06;;;;;;;9.30;2.30;;;5.90;99.90;;;4.31;100.00;98404.69;5025289;28;20077;-72
2023/05/18 01:36:33;;;;;;;10.23;2.08;;;5.80;99.90;;;4.32;100.00;98411.56;5024831;28;20073;-72
2023/05/18 01:39:01;;;;;;;11.30;1.95;;;5.80;99.90;;;4.25;100.00;98407.31;5027669;28;20052;-72
2023/05/18 01:41:30;;;;;;;9.77;1.98;;;5.70;99.90;;;4.28;100.00;98410.69;5009692;28;20178;-73
2023/05/18 01:44:21;;;;;;;11.20;2.38;;;5.70;99.90;;;4.16;100.00;98405.63;5027360;28;20129;-72
2023/05/18 01:47:09;;;;;;;9.07;2.05;;;5.70;99.90;;;4.06;100.00;98411.63;5007821;28;20132;-72
2023/05/18 01:49:46;;;;;;;12.77;2.35;;;5.60;99.90;;;4.01;100.00;98413.38;5030632;28;20041;-72
2023/05/18 01:52:20;;;;;;;11.35;1.70;;;5.50;99.90;;;3.93;100.00;98410.84;5033281;28;20133;-72
2023/05/18 01:54:53;;;;;;;11.32;2.58;;;5.50;99.90;;;3.97;100.00;98413.38;5030375;28;20129;-72
2023/05/18 01:57:22;;;;;;;;;;;5.40;99.90;;;3.96;100.00;98421.09;5013525;28;20064;-72
2023/05/18 01:59:50;;;;;;;11.05;2.03;;;5.40;99.90;;;3.90;100.00;98419.41;5009611;28;19979;-72
2023/05/18 02:02:17;;;;;;;10.73;2.60;;;5.40;99.90;;;3.84;100.00;98411.72;5003479;28;20050;-72
2023/05/18 02:04:45;;;;;;;8.40;2.13;;;5.30;99.90;;;3.78;100.00;98417.69;5009551;28;20049;-72
2023/05/18 02:07:12;;;;;;;8.40;1.88;;;5.30;99.90;;;3.70;100.00;98419.44;5008914;28;20182;-72
2023/05/18 02:09:39;;;;;;;7.63;2.00;;;5.30;99.90;;;3.67;100.00;98416.88;5032244;28;20045;-72
2023/05/18 02:12:07;;;;;;;10.82;2.13;;;5.20;99.90;;;3.60;100.00;98420.28;5031788;28;20064;-72
2023/05/18 02:14:34;;;;;;;5.90;2.20;;;5.10;99.90;;;3.63;100.00;98419.47;5013756;28;20095;-72
2023/05/18 02:17:06;;;;;;;11.43;2.47;;;5.10;99.90;;;3.72;100.00;98416.88;5023482;28;20137;-72
2023/05/18 02:19:36;;;;;;;11.27;2.45;;;5.10;99.90;;;3.66;100.00;98422.88;5023797;28;20052;-72
2023/05/18 02:22:08;;;;;;;6.85;2.10;;;5.10;99.90;;;3.66;100.00;98419.44;5024232;28;20048;-72
2023/05/18 02:24:35;;;;;;;10.38;2.47;;;5.10;99.90;;;3.49;100.00;98420.34;5002357;28;20522;-72
2023/05/18 02:27:02;;;;;;;10.55;2.55;;;5.10;99.90;;;3.52;100.00;98422.03;5023566;28;20437;-72
2023/05/18 02:29:29;;;;;;;9.65;2.50;;;5.00;99.90;;;3.49;100.00;98429.72;5028540;28;20045;-72
2023/05/18 02:31:56;;;;;;;12.68;2.47;;;5.00;99.90;;;3.55;100.00;98425.44;5029859;28;20057;-72
2023/05/18 02:34:23;;;;;;;16.45;2.80;;;5.00;99.90;;;3.58;100.00;98418.59;5026225;28;20049;-73
2023/05/18 02:36:50;;;;;;;10.00;2.20;;;5.00;99.90;;;3.57;100.00;98425.44;5006260;28;20045;-72
2023/05/18 02:39:21;;;;;;;13.43;2.13;;;5.00;99.90;;;3.60;100.00;98422.00;5026453;28;20069;-72
2023/05/18 02:41:47;;;;;;;12.00;2.75;;;5.00;99.90;;;3.61;100.00;98418.59;5002723;28;20409;-72
2023/05/18 02:44:15;;;;;;;15.27;2.80;;;5.00;99.90;;;3.47;100.00;98421.19;5027246;28;21096;-72
2023/05/18 02:46:42;;;;;;;10.45;2.28;;;5.00;99.90;;;3.45;100.00;98421.19;5024235;28;20045;-72
2023/05/18 02:49:09;;;;;;;15.43;2.40;;;4.90;99.90;;;3.40;100.00;98416.88;5015114;28;20131;-72
2023/05/18 02:51:36;;;;;;;10.05;2.72;;;4.80;99.90;;;3.35;100.00;98422.91;5011252;28;20192;-72
2023/05/18 02:54:03;;;;;;;13.73;2.65;;;4.80;99.90;;;3.46;100.00;98422.03;5013628;28;20064;-72
2023/05/18 02:56:31;;;;;;;9.05;2.22;;;4.80;99.90;;;3.43;100.00;98427.19;5024755;28;20112;-72
2023/05/18 02:58:59;;;;;;;12.32;2.67;;;4.90;99.90;;;3.38;100.00;98427.19;5008056;28;20046;-72
2023/05/18 03:01:26;;;;;;;11.52;2.42;;;4.90;99.90;;;3.39;100.00;98422.91;5022592;28;20091;-72
2023/05/18 03:03:56;;;;;;;13.57;2.65;;;4.80;99.90;;;3.34;100.00;98425.47;5024618;28;20136;-72
2023/05/18 03:06:25;;;;;;;9.02;2.58;;;4.80;99.90;;;3.32;100.00;98433.16;5025328;28;20048;-72
2023/05/18 03:08:55;;;;;;;11.93;2.60;;;4.80;99.90;;;3.26;100.00;98430.59;5015975;28;20849;-72
2023/05/18 03:11:23;;;;;;;9.75;2.53;;;4.80;99.90;;;3.23;100.00;98430.59;5030224;28;20576;-72
2023/05/18 03:13:51;;;;;;;10.60;2.70;;;4.70;99.90;;;3.25;100.00;98428.03;5022174;28;20107;-72
2023/05/18 03:16:18;;;;;;;9.20;2.15;;;4.70;99.90;;;3.19;100.00;98428.00;5010439;28;20076;-72
2023/05/18 03:18:45;;;;;;;10.82;2.75;;;4.70;99.90;;;3.15;100.00;98434.88;5026392;28;20061;-72
2023/05/18 03:21:13;;;;;;;14.27;2.33;;;4.70;99.90;;;3.05;100.00;98431.41;5031515;28;20129;-72
2023/05/18 03:23:40;;;;;;;10.90;2.55;;;4.60;99.90;;;3.04;100.00;98428.88;5026974;28;20424;-72
2023/05/18 03:26:10;;;;;;;8.20;2.67;;;4.50;99.90;;;2.95;100.00;98431.44;5025989;28;20103;-72
2023/05/18 03:28:38;;;;;;;10.10;2.55;;;4.50;99.90;;;2.89;100.00;98435.66;5022804;28;20065;-72
2023/05/18 03:31:05;;;;;;;9.02;2.15;;;4.40;99.90;;;2.90;100.00;98432.28;5025627;28;20057;-72
2023/05/18 03:33:32;;;;;;;10.23;2.45;;;4.40;99.90;;;2.84;100.00;98437.38;5024874;28;20052;-72
2023/05/18 03:36:03;;;;;;;15.68;2.85;;;4.30;99.90;;;2.89;100.00;98438.22;5011813;28;20063;-72
2023/05/18 03:38:30;;;;;;;10.27;2.58;;;4.30;99.90;;;2.86;100.00;98438.25;5024718;28;20052;-72
2023/05/18 03:40:57;;;;;;;9.63;2.58;;;4.30;99.90;;;2.88;100.00;98448.50;4994466;28;20106;-72
2023/05/18 03:43:25;;;;;;;9.18;2.28;;;4.30;99.90;;;2.88;100.00;98451.91;5012676;28;20052;-72
2023/05/18 03:45:52;;;;;;;10.82;2.60;;;4.30;99.90;;;2.80;100.00;98448.47;5024293;28;20129;-72
2023/05/18 03:48:20;;;;;;;11.77;2.70;;;4.30;99.90;;;2.81;100.00;98446.78;5025627;28;20049;-72
2023/05/18 03:50:47;;;;;;;10.23;2.60;;;4.20;99.90;;;2.80;100.00;98451.03;5002531;28;20049;-72
2023/05/18 03:53:17;;;;;;;11.45;3.10;;;4.20;99.90;;;2.85;100.00;98451.03;5029693;28;20080;-72
2023/05/18 03:55:45;;;;;;;17.08;2.95;;;4.20;99.90;;;2.81;100.00;98449.34;5025575;28;20049;-72
2023/05/18 03:58:12;;;;;;;8.27;2.20;;;4.20;99.90;;;2.81;100.00;98450.19;5029315;28;20056;-72
2023/05/18 04:00:41;;;;;;;10.77;2.97;;;4.20;99.90;;;2.85;100.00;98457.06;5026076;28;20084;-72
2023/05/18 04:03:13;;;;;;;13.02;2.67;;;4.20;99.90;;;2.79;100.00;98454.47;5012379;28;20079;-72
2023/05/18 04:05:44;;;;;;;7.73;2.40;;;4.20;99.90;;;2.81;100.00;98460.47;5007365;28;20052;-72
2023/05/18 04:08:13;;;;;;;9.60;2.78;;;4.20;99.90;;;2.91;100.00;98457.03;5016202;28;20677;-72
2023/05/18 04:10:44;;;;;;;10.13;2.10;;;4.20;99.90;;;2.87;100.00;98454.47;5021754;28;20049;-72
2023/05/18 04:13:11;;;;;;;8.73;2.13;;;4.20;99.90;;;2.86;100.00;98461.31;5025159;28;20451;-72
2023/05/18 04:15:38;;;;;;;8.75;2.50;;;4.30;99.90;;;2.88;100.00;98462.19;5018776;28;20060;-72
2023/05/18 04:18:06;;;;;;;8.55;2.45;;;4.20;99.90;;;2.96;100.00;98464.75;4990831;28;20046;-72
2023/05/18 04:20:34;;;;;;;10.65;2.65;;;4.30;99.90;;;3.00;100.00;98458.78;5002883;28;20153;-72
2023/05/18 04:23:02;;;;;;;10.18;2.97;;;4.30;99.90;;;3.05;100.00;98461.34;5010635;28;20057;-72
2023/05/18 04:25:29;;;;;;;10.60;2.42;;;4.30;99.90;;;3.09;100.00;98457.94;5027010;28;20072;-71
2023/05/18 04:27:57;;;;;;;11.48;2.58;;;4.30;99.90;;;3.16;100.00;98461.38;5009868;28;20064;-72
2023/05/18 04:30:28;;;;;;;10.43;2.72;;;4.40;99.90;;;3.20;100.00;98468.22;5023773;28;20611;-72
2023/05/18 04:32:57;;;;;;;8.25;2.47;;;4.40;99.90;;;3.29;100.00;98470.81;5008439;28;20505;-72
2023/05/18 04:35:25;;;;;;;10.00;2.63;;;4.50;99.90;;;3.27;100.00;98467.38;5022322;28;20100;-72
2023/05/18 04:37:53;;;;;;;8.27;2.20;;;4.60;99.90;;;3.31;100.00;98469.09;4997067;28;20122;-72
2023/05/18 04:40:21;;;;;;;8.43;2.30;;;4.60;99.90;;;3.33;100.00;98468.25;5028479;28;20049;-72
2023/05/18 04:42:48;;;;;;;10.27;2.60;;;4.60;99.90;;;3.52;100.00;98470.81;4999303;28;20111;-72
2023/05/18 04:45:18;;;;;;;13.10;2.20;;;4.70;99.90;;;3.56;100.00;98478.50;5013993;28;20128;-72
2023/05/18 04:47:52;;;;;;;15.23;3.35;;;4.70;99.90;;;3.60;100.00;98470.78;5032281;28;20140;-72
2023/05/18 04:50:24;;;;;;;8.45;2.53;;;4.80;99.90;;;3.72;100.00;98474.22;5007153;28;20144;-72
2023/05/18 04:52:56;;;;;;;8.13;2.10;;;4.90;99.90;;;3.76;100.00;98473.38;5006784;28;20064;-72
2023/05/18 04:55:26;;;;;;;12.80;2.15;;;4.90;99.90;;;3.90;100.00;98468.22;5023831;28;20068;-72
2023/05/18 04:57:55;;;;;;;10.38;2.33;;;5.00;99.90;;;3.92;100.00;98474.19;5022036;28;20054;-72
2023/05/18 05:00:25;;;;;;;9.23;2.20;;;5.10;99.90;;;4.02;100.00;98466.47;5032713;28;20084;-72
2023/05/18 05:02:52;;;;;;;11.88;2.63;;;5.10;99.90;;;4.13;100.00;98475.88;5031631;28;20050;-71
2023/05/18 05:05:21;;;;;;;9.35;2.25;;;5.10;99.90;;;4.15;100.00;98468.13;5033612;28;20496;-72
2023/05/18 05:07:50;;;;;;;10.88;2.80;;;5.20;99.90;;;4.26;100.00;98465.53;5013493;28;20053;-72
2023/05/18 05:10:34;;;;;;;12.98;2.10;;;5.30;99.90;;;4.42;100.00;98459.47;5017683;28;20516;-72
2023/05/18 05:13:01;;;;;;;12.07;2.60;;;5.40;99.90;;;4.64;100.00;98461.97;5018662;28;20049;-72
2023/05/18 05:15:29;;;;;;;9.05;2.22;;;5.50;99.90;;;4.67;100.00;98449.94;5023690;28;20069;-72
2023/05/18 05:17:57;;;;;;;11.02;2.75;;;5.60;99.90;;;4.78;100.00;98453.31;5025776;28;20531;-72
2023/05/18 05:20:25;;;;;;;10.20;2.17;;;5.70;99.90;;;4.97;100.00;98454.09;5012528;28;20068;-72
2023/05/18 05:22:52;;;;;;;13.02;3.05;;;5.90;99.90;;;5.15;100.00;98450.50;5031537;28;20489;-72
2023/05/18 05:25:20;;;;;;;10.50;3.17;;;6.00;99.90;;;5.47;100.00;98446.00;5033281;28;20129;-72
2023/05/18 05:27:47;;;;;;;10.05;2.17;;;6.20;99.90;;;5.65;100.00;98433.81;5029349;28;20045;-72
2023/05/18 05:30:14;;;;;;;10.13;2.67;;;6.40;99.90;;;5.78;100.00;98421.69;5022385;28;20211;-72
2023/05/18 05:32:41;;;;;;;9.25;2.60;;;6.50;99.90;;;6.00;100.00;98416.34;5024656;28;20599;-72
2023/05/18 05:35:08;;;;;;;9.55;2.58;;;6.70;99.90;;;6.06;100.00;98413.69;5026835;28;20060;-72
2023/05/18 05:37:36;;;;;;;9.55;2.38;;;6.90;99.90;;;6.28;100.00;98412.56;5007956;28;20623;-72
2023/05/18 05:40:08;;;;;;;10.20;2.70;;;7.00;99.90;;;6.36;100.00;98393.56;5030039;28;20137;-72
2023/05/18 05:42:35;;;;;;;9.18;2.05;;;7.20;99.90;;;6.47;100.00;98402.03;5029800;28;20507;-72
2023/05/18 05:45:03;;;;;;;9.82;2.33;;;7.30;99.90;;;6.60;100.00;98397.56;5015064;28;20062;-72
2023/05/18 05:47:30;;;;;;;15.25;3.72;;;7.40;99.90;;;6.62;100.00;98394.09;5024425;28;20136;-72
2023/05/18 05:49:57;;;;;;;15.38;2.78;;;7.50;99.90;;;6.62;100.00;98391.50;5023517;28;20061;-72
2023/05/18 05:52:27;;;;;;;8.90;2.38;;;7.60;99.90;;;6.70;100.00;98396.56;5011939;28;20156;-72
2023/05/18 05:54:55;;;;;;;10.00;2.58;;;7.70;99.90;;;6.68;100.00;98388.84;5012614;28;20060;-72
2023/05/18 05:57:22;;;;;;;13.23;1.98;;;7.70;99.90;;;6.97;100.00;98394.47;5027690;28;20111;-72
2023/05/18 05:59:50;;;;;;;13.02;2.25;;;7.80;99.90;;;7.02;100.00;98390.91;5015648;28;20111;-72
2023/05/18 06:02:19;;;;;;;10.63;2.40;;;7.90;99.90;;;7.16;100.00;98392.44;5028545;28;20052;-72
2023/05/18 06:04:46;;;;;;;8.73;1.88;;;8.00;99.90;;;7.13;100.00;98389.03;5027749;28;20124;-72
2023/05/18 06:07:13;;;;;;;8.10;2.20;;;8.10;99.90;;;7.18;100.00;98391.53;5001696;28;20148;-72
2023/05/18 06:09:40;;;;;;;12.52;2.78;;;8.10;99.90;;;7.16;100.00;98397.59;5026659;28;20617;-72
2023/05/18 06:12:08;;;;;;;9.15;2.05;;;8.10;99.90;;;7.15;100.00;98388.16;5031016;28;20061;-72
2023/05/18 06:14:35;;;;;;;11.48;2.45;;;8.10;99.90;;;7.14;100.00;98387.31;5021420;28;20068;-72
2023/05/18 06:17:02;;;;;;;10.07;2.63;;;8.10;99.90;;;7.12;100.00;98391.66;5013608;28;20054;-72
2023/05/18 06:19:29;;;;;;;13.60;2.80;;;8.10;99.90;;;7.15;100.00;98389.00;5030480;28;20053;-72
2023/05/18 06:21:56;;;;;;;7.25;2.00;;;8.10;99.90;;;7.17;100.00;98384.69;5008430;28;20150;-72
2023/05/18 06:24:24;;;;;;;11.90;2.97;;;8.10;99.90;;;7.43;100.00;98388.56;5011439;28;20106;-72
2023/05/18 06:26:51;;;;;;;11.27;2.67;;;8.10;99.90;;;7.59;100.00;98390.00;5012660;28;20049;-72
2023/05/18 06:29:18;;;;;;;10.88;2.22;;;8.20;99.90;;;7.69;100.00;98388.13;5030634;28;20136;-72
2023/05/18 06:31:45;;;;;;;11.80;2.33;;;8.40;99.90;;;7.77;100.00;98398.31;5014059;28;20049;-72
2023/05/18 06:34:12;;;;;;;12.93;2.28;;;8.60;99.90;;;7.79;100.00;98392.22;5032698;28;20049;-72
2023/05/18 06:36:39;;;;;;;9.63;2.10;;;8.60;99.90;;;7.90;100.00;98402.38;5024372;28;20049;-70
2023/05/18 06:39:06;;;;;;;14.63;2.20;;;8.70;99.90;;;8.20;100.00;98392.31;5028487;28;20050;-70
2023/05/18 06:41:34;;;;;;;11.15;2.50;;;8.90;99.90;;;8.34;100.00;98392.88;5019740;28;20152;-70
2023/05/18 06:44:01;;;;;;;6.70;1.80;;;9.00;99.90;;;8.49;100.00;98395.19;5006802;28;20140;-71
2023/05/18 06:46:28;;;;;;;8.25;2.25;;;9.10;99.90;;;8.71;100.00;98395.59;4973309;28;20152;-70
2023/05/18 06:48:57;;;;;;;12.88;2.33;;;9.40;99.90;;;8.77;100.00;98389.41;5022593;28;20041;-70
2023/05/18 06:51:25;;;;;;;10.35;2.33;;;9.60;99.90;;;9.22;100.00;98391.84;5005683;28;20149;-71
2023/05/18 06:53:52;;;;;;;9.35;1.95;;;9.70;99.90;;;9.12;100.00;98390.34;5008750;28;20403;-70
2023/05/18 06:56:19;;;;;;;8.05;2.00;;;9.90;99.90;;;9.27;100.00;98376.19;5030986;28;20054;-70
2023/05/18 06:58:46;;;;;;;14.45;2.60;;;10.00;99.90;;;8.99;100.00;98385.44;5030282;28;20045;-70
2023/05/18 07:01:13;;;;;;;10.10;2.65;;;10.10;99.90;;;9.17;100.00;98384.16;5022066;28;20049;-70
2023/05/18 07:03:40;;;;;;;12.75;2.60;;;10.10;99.90;;;9.38;100.00;98381.94;5028088;28;20157;-70
2023/05/18 07:06:08;;;;;;;12.05;2.25;;;10.20;99.90;;;9.60;100.00;98383.09;5020862;28;20137;-70
2023/05/18 07:08:35;;;;;;;12.10;2.30;;;10.30;99.90;;;9.74;100.00;98382.75;5019772;28;20125;-70
2023/05/18 07:11:04;;;;;;;10.25;2.08;;;10.40;99.90;;;9.47;100.00;98381.72;5020823;28;20053;-71
2023/05/18 07:13:32;;;;;;;10.68;2.22;;;10.30;99.90;;;9.66;100.00;98384.69;5027123;28;20482;-70
2023/05/18 07:15:59;;;;;;;9.40;1.73;;;10.40;99.90;;;9.82;100.00;98377.34;5027153;28;20585;-70
2023/05/18 07:18:26;;;;;;;10.38;2.03;;;10.60;99.90;;;9.97;100.00;98378.69;5028388;28;20585;-70
2023/05/18 07:20:53;;;;;;;9.48;2.17;;;10.70;99.90;;;9.83;100.00;98376.47;5020915;28;20663;-70
2023/05/18 07:23:21;;;;;;;9.32;2.17;;;10.80;99.90;;;9.75;100.00;98374.06;5004504;28;20472;-70
2023/05/18 07:25:48;;;;;;;8.32;2.25;;;10.80;99.90;;;10.14;100.00;98367.84;5009935;28;20050;-70
2023/05/18 07:28:15;;;;;;;18.15;2.08;;;10.90;99.90;;;10.37;100.00;98370.66;4991306;28;20037;-70
2023/05/18 07:30:42;;;;;;;8.90;2.15;;;11.00;99.90;;;10.63;100.00;98363.84;5009504;28;20057;-70
2023/05/18 07:33:09;;;;;;;9.82;2.08;;;11.20;99.90;;;10.40;100.00;98364.50;5029501;28;20057;-71
2023/05/18 07:35:37;;;;;;;15.30;2.80;;;11.30;99.90;;;10.63;100.00;98362.09;5009446;28;20521;-71
2023/05/18 07:38:04;;;;;;;11.60;2.53;;;11.40;99.90;;;10.83;100.00;98361.50;5033255;28;20045;-71
2023/05/18 07:40:31;;;;;;;11.93;2.63;;;11.60;99.90;;;10.82;100.00;98358.94;5013885;28;20068;-71
2023/05/18 07:42:58;;;;;;;8.52;2.03;;;11.60;99.90;;;10.59;100.00;98357.88;5020184;28;20053;-71
2023/05/18 07:45:26;;;;;;;19.50;2.38;;;11.60;99.90;;;10.86;100.00;98358.78;5020702;28;20049;-71
2023/05/18 07:47:53;;;;;;;9.82;2.10;;;11.70;99.90;;;10.57;100.00;98353.66;5023475;28;20131;-72
2023/05/18 07:50:21;;;;;;;9.77;2.33;;;11.80;99.90;;;10.60;100.00;98351.78;5025731;28;20107;-72
2023/05/18 07:52:48;;;;;;;11.35;2.50;;;11.70;99.90;;;10.55;100.00;98358.88;5014841;28;20053;-72
2023/05/18 07:55:15;;;;;;;9.88;2.13;;;11.70;99.90;;;10.63;100.00;98356.91;5018133;28;20078;-72
2023/05/18 07:57:42;;;;;;;10.63;2.08;;;11.70;99.90;;;10.98;100.00;98357.56;5030127;28;20050;-72
2023/05/18 08:00:10;;;;;;;6.93;1.70;;;11.70;99.90;;;11.12;100.00;98358.88;5011023;28;20081;-72
2023/05/18 08:02:38;;;;;;;12.15;2.25;;;11.80;99.90;;;11.29;100.00;98354.81;4987923;28;20525;-71
2023/05/18 08:05:07;;;;;;;7.13;1.70;;;12.10;99.90;;;11.41;100.00;98355.31;5029581;28;20042;-72
2023/05/18 08:07:34;;;;;;;9.80;1.77;;;12.20;99.90;;;11.47;100.00;98355.97;5029110;28;20049;-71
2023/05/18 08:10:01;;;;;;;8.48;1.70;;;12.30;99.90;;;11.78;100.00;98354.06;5026498;28;20427;-72
2023/05/18 08:12:31;;;;;;;11.98;1.95;;;12.50;99.90;;;11.92;100.00;98350.06;5012984;28;20049;-72
2023/05/18 08:14:58;;;;;;;15.10;2.28;;;12.70;99.90;;;11.87;100.00;98357.19;5031833;28;20054;-72
2023/05/18 08:17:25;;;;;;;10.65;2.20;;;12.90;99.90;;;11.89;100.00;98345.00;5032254;28;20057;-71
2023/05/18 08:19:54;;;;;;;10.52;1.85;;;12.90;99.90;;;11.67;100.00;98344.00;5033380;28;20136;-72
2023/05/18 08:22:21;;;;;;;8.80;2.03;;;12.80;99.90;;;12.21;100.00;98339.53;5027671;28;20104;-72
2023/05/18 08:24:48;;;;;;;9.98;1.95;;;12.80;99.90;;;12.92;100.00;98335.06;5032285;28;20045;-72
2023/05/18 08:27:18;;;;;;;12.15;1.80;;;13.10;99.90;;;12.72;100.00;98328.88;5012070;28;20587;-72
2023/05/18 08:29:45;;;;;;;10.45;2.47;;;13.30;99.90;;;13.26;100.00;98324.09;5019444;28;20110;-72
2023/05/18 08:32:13;;;;;;;7.78;1.52;;;13.40;99.90;;;13.83;100.00;98318.28;5012680;28;20103;-72
2023/05/18 08:34:41;;;;;;;9.57;1.65;;;13.60;99.90;;;13.59;100.00;98316.66;5029730;28;20459;-72
2023/05/18 08:37:08;;;;;;;12.48;1.80;;;13.70;99.90;;;13.06;100.00;98324.91;5029111;28;20471;-72
2023/05/18 08:39:37;;;;;;;10.13;2.25;;;13.70;99.90;;;12.88;100.00;98315.25;5003393;28;20139;-72
2023/05/18 08:42:19;;;;;;;9.40;1.60;;;13.80;99.90;;;13.78;100.00;98316.72;5026810;28;20063;-72
2023/05/18 08:45:31;;;;;;;11.05;1.85;;;14.10;99.90;;;14.26;100.00;98292.84;5011603;28;20601;-72
2023/05/18 08:48:01;;;;;;;12.40;1.40;;;14.60;99.90;;;14.40;100.00;98308.72;5031388;28;20497;-71
2023/05/18 08:50:31;;;;;;;7.85;2.00;;;15.30;99.90;;;14.41;100.00;98302.56;5019320;28;20048;-72
2023/05/18 08:53:06;;;;;;;10.98;1.75;;;15.60;99.90;;;14.54;100.00;98311.56;5018040;28;20156;-71
2023/05/18 08:55:35;;;;;;;9.80;1.98;;;16.00;99.70;;;14.41;100.00;98306.06;5008664;28;20049;-72
2023/05/18 08:58:06;;;;;;;9.18;1.50;;;16.30;98.90;;;15.10;100.00;98311.50;5011982;28;20073;-72
2023/05/18 09:00:37;;;;;;;8.98;1.65;;;16.80;98.30;;;14.85;100.00;98302.28;5010352;28;20421;-72
2023/05/18 09:03:05;;;;;;;8.50;1.70;;;17.10;97.00;;;15.59;100.00;98304.66;5029645;28;20422;-72
2023/05/18 09:05:32;;;;;;;8.38;1.73;;;17.20;96.80;;;15.67;100.00;98304.28;4992897;28;20048;-72
2023/05/18 09:08:00;;;;;;;8.15;1.70;;;17.80;95.90;;;14.76;100.00;98302.72;5000626;28;20424;-72
2023/05/18 09:10:27;;;;;;;7.40;1.40;;;17.50;95.20;;;14.89;100.00;98292.50;5024320;28;20489;-72
2023/05/18 09:12:55;;;;;;;9.85;1.85;;;17.60;95.00;;;15.02;100.00;98296.22;5022892;28;20132;-72
2023/05/18 09:15:24;;;;;;;9.48;1.60;;;17.60;95.00;;;15.12;100.00;98294.00;5020482;28;20132;-72
2023/05/18 09:17:51;;;;;;;10.38;1.83;;;17.50;94.70;;;15.90;100.00;98297.88;5024700;28;20119;-72
2023/05/18 09:20:19;;;;;;;9.13;1.58;;;17.40;95.20;;;15.90;100.00;98284.81;5019569;28;20050;-71
2023/05/18 09:22:50;;;;;;;7.18;1.73;;;18.20;93.90;;;16.62;100.00;98288.72;4986308;28;20046;-71
2023/05/18 09:25:18;;;;;;;8.77;1.75;;;18.40;94.00;;;16.37;100.00;98291.84;5025256;28;20406;-71
2023/05/18 09:27:47;;;;;;;9.10;2.28;;;18.80;92.90;;;15.81;100.00;98298.38;5012384;28;20460;-73
2023/05/18 09:30:14;;;;;;;12.82;2.33;;;18.30;92.40;;;15.46;100.00;98298.38;5028893;28;20060;-72
2023/05/18 09:32:45;;;;;;;9.48;2.13;;;17.70;93.40;;;15.94;100.00;98291.53;5021283;28;20050;-72
2023/05/18 09:35:12;;;;;;;13.32;2.50;;;17.70;93.70;;;16.20;100.00;98281.47;5021822;28;20910;-72
2023/05/18 09:37:43;;;;;;;6.95;1.70;;;18.00;93.70;;;15.79;100.00;98297.59;5023321;28;20081;-72
2023/05/18 09:40:11;;;;;;;8.13;1.70;;;18.20;92.50;;;15.80;100.00;98286.19;5007509;28;20064;-72
2023/05/18 09:42:41;;;;;;;6.50;1.58;;;18.00;92.20;;;16.50;100.00;98279.78;5009399;28;20627;-72
2023/05/18 09:45:25;;;;;;;12.70;2.17;;;18.20;93.20;;;15.44;100.00;98281.91;5012057;28;20045;-72
2023/05/18 09:47:53;;;;;;;9.05;1.98;;;17.60;92.80;;;16.42;100.00;98278.50;5015984;28;20461;-71
2023/05/18 09:50:24;;;;;;;11.75;2.13;;;17.90;93.00;;;16.65;100.00;98279.84;5008215;28;20487;-72
2023/05/18 09:52:51;;;;;;;8.30;1.80;;;18.50;92.90;;;17.11;100.00;98283.34;5010906;28;20151;-71
2023/05/18 09:55:19;;;;;;;9.40;2.40;;;18.80;92.70;;;16.59;100.00;98274.97;5029119;28;20056;-72
2023/05/18 09:57:49;;;;;;;9.68;1.83;;;18.90;91.30;;;17.18;100.00;98265.47;5005246;28;20049;-72
2023/05/18 10:00:18;;;;;;;21.13;2.55;;;18.50;91.90;;;16.84;100.00;98269.22;5018778;28;20487;-72
2023/05/18 10:02:51;;;;;;;9.23;2.37;;;18.60;91.30;;;17.00;100.00;98275.25;5012421;28;20049;-72
2023/05/18 10:05:25;;;;;;;8.60;2.35;;;18.60;93.00;;;16.43;100.00;98288.06;5011622;28;20049;-72
2023/05/18 10:07:59;;;;;;;7.53;1.50;;;18.40;91.80;;;17.64;100.00;98268.00;5029406;28;20132;-72
2023/05/18 10:10:28;;;;;;;8.50;1.92;;;18.40;92.90;;;18.04;100.00;98264.72;5028308;28;20501;-72
2023/05/18 10:12:59;;;;;;;7.93;1.90;;;18.80;92.20;;;18.56;100.00;98256.19;5011106;28;20531;-72
2023/05/18 10:15:26;;;;;;;11.77;2.30;;;19.30;91.90;;;19.01;100.00;98262.06;5023348;28;20144;-72
2023/05/18 10:17:56;;;;;;;8.63;2.20;;;19.80;91.40;;;18.97;100.00;98256.16;5025599;28;20104;-72
2023/05/18 10:20:25;;;;;;;9.45;2.38;;;20.20;90.80;;;17.64;100.00;98262.75;5023945;28;20133;-72
2023/05/18 10:22:55;;;;;;;7.18;1.50;;;19.90;90.20;;;17.39;100.00;98267.78;5023003;28;20890;-72
2023/05/18 10:25:26;;;;;;;8.07;2.00;;;19.10;91.40;;;17.23;100.00;98257.34;5015162;28;20132;-73